CPX264 Details

Departure: Charlotte/Douglas International Airport (KCLT)
Arrival: Miami International Airport (KMIA) at N/A
Route: ICONS4 NOOKS WURFL Q83 JEVED Q97 KENLL OMN HILEY7
Notes:


Current Weather Information
KCLT 190652Z 00000KT 10SM OVC250 09/06 A3006 RMK AO2 SLP175 T00890056
KMIA 190653Z 12013KT 10SM FEW018 SCT028 SCT070 BKN220 28/23 A2985 RMK AO2 SLP107 T02830233